Largo, FL

10:14 PM EST on December 21, 2014 (GMT -0500)
Bayside Court-CW7824 | Change Station
CLOSE
Current Station
Personal Weather Station
Location: Clearwater, FL
Elevation: 59 ft
Nearby Weather Stations

Elev 59 ft 27.93 °N, 82.80 °W | Updated 12 seconds ago

Overcast
Overcast
59.7 °F
Feels Like 59.7 °F
N
0.0
Wind Variable Wind from South
Gusts 0.0 mph

Today
High -- | Low -- °F
--% Chance of Precip.
Yesterday
High -- | Low -- °F
Precip. -- in
7:18 AM 5:40 PM
New Moon, 0% visible
Pressure 30.03 in
Visibility 9.0 miles
Clouds Overcast 6000 ft
Dew Point 60 °F
Humidity 99%
Rainfall 0.02 in
Snow Depth Not available.
UV 0 out of 12
Pollen 4.20 out of 12
Air Quality Not available.
Flu Activity Not available.
METAR KPIE 220253Z 12005KT 9SM OVC060 20/19 A3003 RMK AO2 LTG DSNT N RAE00B25E34 SLP169 P0000 60002 T02000189 53003

More Conditions Fewer Conditions

Pressure 30.03 in
Visibility 9.0 miles
Clouds Overcast 6000 ft
Dew Point 60 °F
Humidity 99%
Rainfall 0.02 in
Snow Depth Not available.
UV 0 out of 12
Pollen 4.20 out of 12
Air Quality Not available.
Flu Activity Not available.
METAR KPIE 220253Z 12005KT 9SM OVC060 20/19 A3003 RMK AO2 LTG DSNT N RAE00B25E34 SLP169 P0000 60002 T02000189 53003

More Conditions Fewer Conditions

10-Day Weather Forecast

Almanac

Astronomy

Dec. 21, 2014 Rise Set
Actual Time
Civil Twilight
Nautical Twilight
Astronomical Twilight
Moon
Length of Visible Light
Length of Day
Tomorrow will be .
, % of the Moon is Illuminated

Today's Extremes

State Highs State Lows

Community

WunderPhotos

Upload Photos

1,779,529 photos uploaded!

WunderBlogs® & News

Nearby

Air Quality

  Air Quality AQ Index Pollutant
Not available.

Snow Depth

Station Depth Elevation

Earthquake Activity

City Distance Mag. Time & Date
Minimum magnitude displayed is 2.5.

Coastal Water Temperatures

Place Temperature

Nearby Weather Stations